Ever Delight — 3FCB8 — position and weather

sailwx.info

Track history (hours):
 
Tides and Currents Weather Stations Pressure Air Temp Water Temp Dewpoint Dewpoint Depression Visibility Wind Speed Wind Dir Waves Ship Positions

Ever Delight

Last reported at 2015-Jan-28 12:26 UTC. Time now 2015-Jan-30 10:55 UTC.
Position N 22°56' E 119°57'.

Type: Cargo ship. MMSI: 351936000.

Date/timePositionNaut miles runAvg speedWind from/ knotsBaromVisibWave heightAir tempDewpointWater temp
2015-Jan-28 12:26N 22°56' E 119°57'1011.7
2015-Jan-28 11:33N 22°47' E 120°02'1211.9
2015-Jan-28 10:33N 22°37' E 120°08'1010.3
2015-Jan-28 09:33N 22°33' E 120°19'1 1.2
2015-Jan-28 08:33N 22°33' E 120°20'0 0.0
2015-Jan-28 07:27N 22°33' E 120°20'0 0.0
2015-Jan-28 06:33N 22°33' E 120°20'0 0.0
2015-Jan-28 05:33N 22°33' E 120°20'0 0.0
2015-Jan-28 04:30N 22°33' E 120°20'0 0.0
2015-Jan-28 03:30N 22°33' E 120°20'0 0.0
2015-Jan-28 02:30N 22°33' E 120°20'0 0.0
2015-Jan-28 01:30N 22°33' E 120°20'0 0.0
2015-Jan-28 00:31N 22°33' E 120°20'0 0.0
2015-Jan-27 23:28N 22°33' E 120°20'0 0.0
2015-Jan-27 22:10N 22°33' E 120°20'0 0.0
2015-Jan-27 21:28N 22°33' E 120°20'0 0.1
2015-Jan-27 20:28N 22°33' E 120°20'0 0.0
2015-Jan-27 19:04N 22°33' E 120°20'0 0.0
2015-Jan-27 18:16N 22°33' E 120°20'0 0.0
2015-Jan-27 17:16N 22°33' E 120°20'0 0.0
2015-Jan-27 16:22N 22°33' E 120°20'0 0.0
2015-Jan-27 15:21N 22°33' E 120°20'3 3.9
2015-Jan-27 14:33N 22°32' E 120°17'6 5.6
2015-Jan-27 13:33N 22°29' E 120°12'7 6.7
2015-Jan-27 12:33N 22°23' E 120°09'2 1.6
2015-Jan-27 11:33N 22°24' E 120°08'1 1.5
2015-Jan-27 10:33N 22°25' E 120°08'1 1.3
2015-Jan-27 09:33N 22°27' E 120°08'1 0.9
2015-Jan-27 08:33N 22°28' E 120°08'9 9.4
2015-Jan-27 07:33N 22°20' E 120°13'  
Track history (hours):
 
Tides and Currents Weather Stations Pressure Air Temp Water Temp Dewpoint Dewpoint Depression Visibility Wind Speed Wind Dir Waves Ship Positions

Ever Delight

Last reported at 2015-Jan-28 12:26 UTC. Time now 2015-Jan-30 10:55 UTC.
Position N 22°56' E 119°57'.

Type: Cargo ship. MMSI: 351936000.

Date/timePositionNaut miles runAvg speedWind from/ knotsBaromVisibWave heightAir tempDewpointWater temp
2015-Jan-28 12:26N 22°56' E 119°57'1011.7
2015-Jan-28 11:33N 22°47' E 120°02'1211.9
2015-Jan-28 10:33N 22°37' E 120°08'1010.3
2015-Jan-28 09:33N 22°33' E 120°19'1 1.2
2015-Jan-28 08:33N 22°33' E 120°20'0 0.0
2015-Jan-28 07:27N 22°33' E 120°20'0 0.0
2015-Jan-28 06:33N 22°33' E 120°20'0 0.0
2015-Jan-28 05:33N 22°33' E 120°20'0 0.0
2015-Jan-28 04:30N 22°33' E 120°20'0 0.0
2015-Jan-28 03:30N 22°33' E 120°20'0 0.0
2015-Jan-28 02:30N 22°33' E 120°20'0 0.0
2015-Jan-28 01:30N 22°33' E 120°20'0 0.0
2015-Jan-28 00:31N 22°33' E 120°20'0 0.0
2015-Jan-27 23:28N 22°33' E 120°20'0 0.0
2015-Jan-27 22:10N 22°33' E 120°20'0 0.0
2015-Jan-27 21:28N 22°33' E 120°20'0 0.1
2015-Jan-27 20:28N 22°33' E 120°20'0 0.0
2015-Jan-27 19:04N 22°33' E 120°20'0 0.0
2015-Jan-27 18:16N 22°33' E 120°20'0 0.0
2015-Jan-27 17:16N 22°33' E 120°20'0 0.0
2015-Jan-27 16:22N 22°33' E 120°20'0 0.0
2015-Jan-27 15:21N 22°33' E 120°20'3 3.9
2015-Jan-27 14:33N 22°32' E 120°17'6 5.6
2015-Jan-27 13:33N 22°29' E 120°12'7 6.7
2015-Jan-27 12:33N 22°23' E 120°09'2 1.6
2015-Jan-27 11:33N 22°24' E 120°08'1 1.5
2015-Jan-27 10:33N 22°25' E 120°08'1 1.3
2015-Jan-27 09:33N 22°27' E 120°08'1 0.9
2015-Jan-27 08:33N 22°28' E 120°08'9 9.4
2015-Jan-27 07:33N 22°20' E 120°13'  

Dump ship's entire track history